Time;durP1;ratioP1;P1;durP2;ratioP2;P2;SDS_P1;SDS_P2;PMS_P1;PMS_P2;Temp;Humidity;BMP_temperature;BMP_pressure;BME280_temperature;BME280_humidity;BME280_pressure;Samples;Min_cycle;Max_cycle;Signal;HPM_P1;HPM_P2
2022/10/05 00:00:57;;;;;;;;;5.50;5.50;;;24.58;101925.21;;;;117413;1190;25655;-62
2022/10/05 00:03:40;;;;;;;;;6.75;5.50;;;24.58;101922.66;;;;117411;1190;24840;-62
2022/10/05 00:06:10;;;;;;;;;7.67;6.33;;;24.59;101924.23;;;;117421;1190;24919;-65
2022/10/05 00:08:38;;;;;;;;;7.50;6.00;;;24.59;101925.16;;;;117425;1189;25482;-62
2022/10/05 00:11:07;;;;;;;;;7.33;5.67;;;24.58;101927.14;;;;117422;1190;24861;-62
2022/10/05 00:13:35;;;;;;;;;7.33;6.33;;;24.56;101925.48;;;;117457;1190;25694;-62
2022/10/05 00:16:19;;;;;;;;;4.25;4.25;;;24.55;101927.02;;;;117420;1188;24771;-62
2022/10/05 00:18:49;;;;;;;;;5.00;5.00;;;24.54;101927.06;;;;117452;1190;25343;-63
2022/10/05 00:21:23;;;;;;;;;5.00;5.00;;;24.55;101929.04;;;;117480;1189;24769;-63
2022/10/05 00:23:55;;;;;;;;;9.00;7.75;;;24.54;101928.08;;;;117440;1189;25523;-63
2022/10/05 00:26:26;;;;;;;;;8.00;7.67;;;24.54;101926.67;;;;117415;1189;25648;-62
2022/10/05 00:28:54;;;;;;;;;7.00;7.00;;;24.53;101926.42;;;;117447;1189;25660;-63
2022/10/05 00:31:25;;;;;;;;;8.00;6.00;;;24.52;101932.62;;;;117412;1190;24750;-63
2022/10/05 00:33:54;;;;;;;;;8.00;5.50;;;24.50;101933.92;;;;117416;1190;25526;-68
2022/10/05 00:36:24;;;;;;;;;5.50;4.50;;;24.51;101932.13;;;;117392;1190;25471;-66
2022/10/05 00:38:54;;;;;;;;;5.00;4.50;;;24.49;101938.73;;;;117434;1189;25403;-71
2022/10/05 00:41:28;;;;;;;;;6.50;6.50;;;24.48;101947.47;;;;117397;1190;24920;-63
2022/10/05 00:44:21;;;;;;;;;7.75;5.75;;;24.49;101950.90;;;;117401;1190;24766;-69
2022/10/05 00:47:08;;;;;;;;;7.67;7.00;;;24.49;101953.77;;;;117416;1190;25430;-64
2022/10/05 00:50:31;;;;;;;;;4.50;4.50;;;24.47;101956.04;;;;117405;1190;25256;-62
2022/10/05 00:53:38;;;;;;;;;6.67;6.00;;;24.49;101961.01;;;;117102;1192;25518;-62
2022/10/05 00:56:31;;;;;;;;;6.00;6.00;;;24.52;101970.08;;;;117486;1190;25024;-61
2022/10/05 00:59:08;;;;;;;;;6.25;5.25;;;24.51;101976.85;;;;117404;1190;25512;-61
2022/10/05 01:02:04;;;;;;;;;8.00;7.00;;;24.48;101980.26;;;;117417;1189;25659;-62
2022/10/05 01:04:51;;;;;;;;;5.00;5.00;;;24.47;101983.58;;;;117421;1190;24845;-62
2022/10/05 01:07:46;;;;;;;;;7.75;6.25;;;24.44;101990.64;;;;117414;1189;25331;-62
2022/10/05 01:10:26;;;;;;;;;4.50;4.50;;;24.44;101992.47;;;;117424;1190;25636;-62
2022/10/05 01:13:13;;;;;;;;;7.00;6.25;;;24.44;101996.86;;;;117425;1189;25619;-63
2022/10/05 01:15:56;;;;;;;;;4.00;4.00;;;24.42;101998.98;;;;117468;1190;25698;-64
2022/10/05 01:18:52;;;;;;;;;7.00;5.00;;;24.41;102004.02;;;;117390;1189;25179;-69
2022/10/05 01:21:23;;;;;;;;;4.50;4.50;;;24.42;102007.50;;;;117360;1189;25263;-70
2022/10/05 01:24:42;;;;;;;;;5.00;4.00;;;24.41;102011.96;;;;117404;1190;24844;-62
2022/10/05 01:27:35;;;;;;;;;6.50;5.00;;;24.46;102013.23;;;;117130;1193;25187;-62
2022/10/05 01:30:15;;;;;;;;;5.67;5.00;;;24.46;102016.43;;;;117063;1192;25115;-63
2022/10/05 01:32:50;;;;;;;;;7.50;6.25;;;24.44;102010.66;;;;117730;1187;24870;-63
2022/10/05 01:35:21;;;;;;;;;4.25;4.25;;;24.43;102008.31;;;;117626;1188;24705;-64
2022/10/05 01:38:06;;;;;;;;;6.75;5.00;;;24.43;102009.17;;;;117607;1186;25162;-63
2022/10/05 01:40:43;;;;;;;;;5.50;5.00;;;24.41;102007.13;;;;117502;1188;25303;-63
2022/10/05 01:43:24;;;;;;;;;5.75;4.00;;;24.42;102009.70;;;;117609;1187;24992;-63
2022/10/05 01:46:37;;;;;;;;;5.50;4.75;;;24.42;102011.70;;;;117460;1188;25322;-62
2022/10/05 01:49:44;;;;;;;;;5.25;5.25;;;24.44;102011.81;;;;117595;1189;25044;-62
2022/10/05 01:52:43;;;;;;;;;5.50;4.25;;;24.45;102011.27;;;;117558;1186;25221;-62
2022/10/05 01:55:45;;;;;;;;;7.50;4.50;;;24.46;102018.80;;;;117569;1188;24689;-62
2022/10/05 01:58:35;;;;;;;;;5.25;5.00;;;24.45;102021.02;;;;117616;1188;25013;-67
2022/10/05 02:01:05;;;;;;;;;4.00;3.00;;;24.42;102026.05;;;;117573;1189;25004;-65
2022/10/05 02:03:58;;;;;;;;;6.00;4.50;;;24.40;102029.11;;;;117932;1187;25378;-70
2022/10/05 02:06:30;;;;;;;;;3.00;3.00;;;24.44;102034.48;;;;117598;1187;24956;-68
2022/10/05 02:09:08;;;;;;;;;5.75;5.00;;;24.45;102038.92;;;;117555;1188;24803;-62
2022/10/05 02:11:38;;;;;;;;;4.00;4.00;;;24.44;102036.95;;;;117501;1188;24864;-65
2022/10/05 02:14:11;;;;;;;;;6.00;4.00;;;24.44;102038.66;;;;117600;1187;25479;-72
2022/10/05 02:16:45;;;;;;;;;5.00;4.75;;;24.43;102042.14;;;;117521;1186;25603;-68
2022/10/05 02:19:26;;;;;;;;;5.33;5.33;;;24.44;102043.27;;;;117505;1186;25643;-70
2022/10/05 02:22:10;;;;;;;;;8.00;6.67;;;24.43;102042.06;;;;117513;1189;25595;-71
2022/10/05 02:24:48;;;;;;;;;5.00;5.00;;;24.43;102039.09;;;;117525;1189;25259;-62
2022/10/05 02:27:51;;;;;;;;;6.75;4.50;;;24.46;102043.83;;;;117538;1187;25212;-62
2022/10/05 02:30:20;;;;;;;;;4.25;4.25;;;24.49;102051.03;;;;117495;1189;25222;-62
2022/10/05 02:33:00;;;;;;;;;4.00;4.00;;;24.49;102057.11;;;;117410;1189;25048;-65
2022/10/05 02:35:29;;;;;;;;;5.50;5.00;;;24.45;102061.21;;;;117444;1189;25383;-64
2022/10/05 02:38:31;;;;;;;;;6.00;5.25;;;24.44;102064.48;;;;117431;1189;25400;-63
2022/10/05 02:41:22;;;;;;;;;4.75;3.25;;;24.44;102070.81;;;;117453;1189;24764;-64
2022/10/05 02:44:19;;;;;;;;;5.33;5.33;;;24.43;102072.02;;;;117390;1189;25468;-64
2022/10/05 02:47:05;;;;;;;;;3.00;3.00;;;24.45;102073.86;;;;117436;1189;25585;-64
2022/10/05 02:50:04;;;;;;;;;3.75;3.75;;;24.43;102075.00;;;;117449;1189;25329;-64
2022/10/05 02:52:47;;;;;;;;;6.00;6.00;;;24.41;102077.05;;;;117426;1189;25523;-66
2022/10/05 02:55:28;;;;;;;;;3.67;3.67;;;24.39;102078.33;;;;117453;1189;24788;-64
2022/10/05 02:58:01;;;;;;;;;4.50;4.00;;;24.39;102082.02;;;;117443;1189;25271;-64
2022/10/05 03:00:35;;;;;;;;;4.75;4.75;;;24.39;102083.98;;;;117402;1189;24939;-64
2022/10/05 03:03:51;;;;;;;;;4.75;4.75;;;24.38;102085.33;;;;117445;1189;25483;-66
2022/10/05 03:06:26;;;;;;;;;5.75;4.00;;;24.40;102088.86;;;;117448;1189;25564;-66
2022/10/05 03:09:14;;;;;;;;;6.50;5.00;;;24.38;102093.52;;;;117426;1188;24971;-63
2022/10/05 03:11:50;;;;;;;;;7.50;6.00;;;24.39;102100.16;;;;117450;1189;24899;-62
2022/10/05 03:14:26;;;;;;;;;6.50;5.00;;;24.41;102104.42;;;;117420;1189;25103;-65
2022/10/05 03:17:12;;;;;;;;;6.50;5.00;;;24.39;102106.92;;;;117419;1189;25269;-64
2022/10/05 03:19:53;;;;;;;;;4.25;4.00;;;24.36;102109.22;;;;117433;1188;25656;-64
2022/10/05 03:22:40;;;;;;;;;6.00;6.00;;;24.34;102109.20;;;;117449;1189;25592;-65
2022/10/05 03:25:23;;;;;;;;;6.67;5.00;;;24.35;102112.45;;;;117415;1190;24733;-65
2022/10/05 03:28:18;;;;;;;;;5.75;5.00;;;24.33;102114.33;;;;117341;1189;25191;-65
2022/10/05 03:31:23;;;;;;;;;6.25;6.00;;;24.37;102119.14;;;;117307;1190;25364;-65
2022/10/05 03:33:58;;;;;;;;;4.00;4.00;;;24.45;102125.84;;;;117342;1189;24939;-65
2022/10/05 03:36:45;;;;;;;;;4.00;4.00;;;24.45;102130.98;;;;117466;1188;25278;-64
2022/10/05 03:39:35;;;;;;;;;7.50;6.50;;;24.45;102132.73;;;;117530;1188;25248;-65
2022/10/05 03:42:27;;;;;;;;;5.00;4.00;;;24.43;102138.85;;;;117897;1188;25497;-65
2022/10/05 03:45:02;;;;;;;;;2.67;2.67;;;24.42;102142.59;;;;117518;1189;24821;-65
2022/10/05 03:47:44;;;;;;;;;4.25;4.00;;;24.39;102145.66;;;;117514;1188;24971;-65
2022/10/05 03:50:24;;;;;;;;;5.00;5.00;;;24.37;102148.09;;;;117509;1188;24794;-64
2022/10/05 03:53:01;;;;;;;;;4.00;4.00;;;24.34;102150.34;;;;117840;1187;25585;-65
2022/10/05 03:55:52;;;;;;;;;6.00;6.00;;;24.32;102151.04;;;;117501;1189;25744;-65
2022/10/05 03:58:34;;;;;;;;;4.75;4.50;;;24.33;102155.95;;;;117499;1189;24749;-64
2022/10/05 04:01:09;;;;;;;;;4.75;3.00;;;24.33;102161.00;;;;117496;1188;25013;-64
2022/10/05 04:03:43;;;;;;;;;4.00;3.50;;;24.32;102166.91;;;;117494;1189;25293;-63
2022/10/05 04:06:25;;;;;;;;;4.00;4.00;;;24.31;102167.39;;;;117496;1188;25273;-62
2022/10/05 04:09:03;;;;;;;;;5.00;4.00;;;24.31;102167.51;;;;117488;1188;25576;-62
2022/10/05 04:11:50;;;;;;;;;7.00;4.25;;;24.31;102169.40;;;;117511;1187;25106;-62
2022/10/05 04:14:23;;;;;;;;;4.50;4.00;;;24.30;102172.39;;;;117488;1189;25609;-62
2022/10/05 04:16:59;;;;;;;;;5.75;5.75;;;24.28;102173.54;;;;117484;1188;25638;-62
2022/10/05 04:19:38;;;;;;;;;5.00;5.00;;;24.29;102177.42;;;;117528;1186;25646;-63
2022/10/05 04:22:19;;;;;;;;;5.00;4.00;;;24.29;102178.91;;;;117874;1188;25565;-64
2022/10/05 04:25:04;;;;;;;;;5.50;5.00;;;24.28;102176.80;;;;117511;1186;25330;-62
2022/10/05 04:27:38;;;;;;;;;5.67;5.67;;;24.25;102175.76;;;;117506;1189;25016;-63
2022/10/05 04:30:16;;;;;;;;;3.00;3.00;;;24.23;102177.36;;;;117489;1189;25005;-64
2022/10/05 04:32:51;;;;;;;;;5.33;4.33;;;24.24;102178.00;;;;117470;1189;25163;-63
2022/10/05 04:35:36;;;;;;;;;4.00;4.00;;;24.25;102178.54;;;;117474;1188;25451;-64
2022/10/05 04:38:31;;;;;;;;;9.00;5.50;;;24.26;102188.02;;;;117681;1188;25588;-62
2022/10/05 04:41:10;;;;;;;;;5.50;4.50;;;24.26;102189.86;;;;117708;1188;25790;-63
2022/10/05 04:43:47;;;;;;;;;5.75;5.00;;;24.32;102195.25;;;;117521;1188;25244;-63
2022/10/05 04:46:42;;;;;;;;;6.25;4.75;;;24.26;102196.65;;;;117518;1188;24697;-63
2022/10/05 04:49:48;;;;;;;;;5.00;5.00;;;24.30;102203.56;;;;117526;1188;24841;-63
2022/10/05 04:52:16;;;;;;;;;5.25;5.25;;;24.33;102206.83;;;;117562;1188;24699;-64
2022/10/05 04:55:08;;;;;;;;;7.67;6.00;;;24.30;102210.82;;;;117576;1188;24868;-65
2022/10/05 04:58:03;;;;;;;;;9.00;6.75;;;24.28;102212.09;;;;117483;1188;24905;-71
2022/10/05 05:00:58;;;;;;;;;6.75;6.00;;;24.33;102217.86;;;;117547;1187;25279;-70
2022/10/05 05:03:37;;;;;;;;;8.00;8.00;;;24.37;102220.05;;;;117520;1188;25436;-65
2022/10/05 05:06:34;;;;;;;;;6.25;5.00;;;24.38;102221.22;;;;117472;1188;25529;-65
2022/10/05 05:09:21;;;;;;;;;7.00;6.00;;;24.40;102223.89;;;;117494;1187;25615;-67
2022/10/05 05:11:55;;;;;;;;;10.67;6.67;;;24.41;102227.97;;;;117502;1187;24995;-69
2022/10/05 05:14:58;;;;;;;;;6.00;6.00;;;24.44;102232.44;;;;117528;1188;25410;-69
2022/10/05 05:17:26;;;;;;;;;8.75;5.75;;;24.46;102236.96;;;;117497;1188;25210;-68
2022/10/05 05:20:18;;;;;;;;;7.75;5.50;;;24.43;102238.02;;;;117506;1188;25285;-70
2022/10/05 05:23:31;;;;;;;;;9.25;6.50;;;24.46;102238.54;;;;117473;1188;24748;-70
2022/10/05 05:26:10;;;;;;;;;6.75;6.25;;;24.51;102237.70;;;;117745;1187;25280;-61
2022/10/05 05:29:08;;;;;;;;;6.00;6.00;;;24.53;102240.59;;;;117505;1188;25057;-61
2022/10/05 05:31:41;;;;;;;;;8.75;6.00;;;24.56;102247.48;;;;117472;1186;25385;-68
2022/10/05 05:34:38;;;;;;;;;7.00;6.00;;;24.58;102250.15;;;;117838;1187;25437;-66
2022/10/05 05:37:48;;;;;;;;;7.75;6.75;;;24.61;102254.20;;;;117493;1188;24831;-68
2022/10/05 05:40:24;;;;;;;;;6.75;6.00;;;24.71;102257.29;;;;117897;1188;25306;-65
2022/10/05 05:43:14;;;;;;;;;10.50;8.00;;;24.63;102256.67;;;;117496;1188;25129;-62
2022/10/05 05:45:48;;;;;;;;;7.67;5.67;;;24.61;102257.88;;;;117521;1189;25538;-65
2022/10/05 05:48:49;;;;;;;;;8.00;6.75;;;24.57;102262.46;;;;117511;1189;25536;-67
2022/10/05 05:51:29;;;;;;;;;11.00;6.00;;;24.63;102263.45;;;;117413;1189;25124;-61
2022/10/05 05:54:12;;;;;;;;;8.00;6.33;;;24.63;102268.08;;;;117833;1186;25386;-62
2022/10/05 05:56:46;;;;;;;;;8.50;6.50;;;24.62;102271.84;;;;117832;1187;26430;-64
2022/10/05 05:59:24;;;;;;;;;6.00;6.00;;;24.59;102274.22;;;;117505;1189;24756;-62
2022/10/05 06:01:58;;;;;;;;;7.00;6.33;;;24.60;102281.14;;;;117523;1189;25023;-61
2022/10/05 06:04:44;;;;;;;;;9.75;7.00;;;24.61;102282.84;;;;117515;1188;25645;-61
2022/10/05 06:07:16;;;;;;;;;8.25;7.00;;;24.55;102287.71;;;;117877;1187;24957;-63
2022/10/05 06:10:25;;;;;;;;;8.67;8.33;;;24.55;102287.80;;;;117486;1188;26475;-61
2022/10/05 06:12:55;;;;;;;;;10.33;6.67;;;24.64;102288.05;;;;117609;1191;24916;-59
2022/10/05 06:15:37;;;;;;;;;12.00;7.33;;;24.72;102292.66;;;;117661;1191;25607;-59
2022/10/05 06:18:11;;;;;;;;;12.75;11.00;;;24.81;102294.34;;;;117493;1188;25006;-64
2022/10/05 06:20:44;;;;;;;;;16.50;11.00;;;24.81;102296.30;;;;117465;1189;25617;-62
2022/10/05 06:23:29;;;;;;;;;18.00;13.25;;;24.76;102297.16;;;;117526;1187;25358;-60
2022/10/05 06:26:06;;;;;;;;;16.50;11.00;;;24.76;102301.05;;;;117501;1189;25402;-60
2022/10/05 06:28:38;;;;;;;;;20.00;13.00;;;24.74;102297.85;;;;117512;1188;25593;-61
2022/10/05 06:32:02;;;;;;;;;20.50;12.50;;;24.72;102297.44;;;;117519;1188;25697;-61
2022/10/05 06:34:52;;;;;;;;;17.00;11.33;;;24.80;102299.31;;;;117395;1191;24736;-61
2022/10/05 06:37:41;;;;;;;;;12.25;8.75;;;24.82;102303.89;;;;117884;1187;25141;-60
2022/10/05 06:40:12;;;;;;;;;17.00;12.00;;;24.79;102311.88;;;;117844;1187;25486;-60
2022/10/05 06:43:04;;;;;;;;;15.75;10.75;;;24.77;102313.67;;;;117496;1187;25253;-61
2022/10/05 06:45:58;;;;;;;;;15.50;11.00;;;24.77;102317.31;;;;117730;1187;25391;-61
2022/10/05 06:49:11;;;;;;;;;14.00;12.00;;;24.78;102318.95;;;;117841;1188;25478;-61
2022/10/05 06:51:46;;;;;;;;;11.75;10.00;;;24.82;102314.46;;;;117591;1187;24828;-60
2022/10/05 06:54:30;;;;;;;;;11.50;8.50;;;24.84;102314.64;;;;117841;1186;25441;-61
2022/10/05 06:57:26;;;;;;;;;11.67;9.67;;;24.84;102312.85;;;;117509;1188;25399;-61
2022/10/05 07:00:02;;;;;;;;;12.25;9.25;;;24.85;102316.11;;;;117511;1189;25541;-61
2022/10/05 07:02:42;;;;;;;;;8.75;8.00;;;24.83;102311.94;;;;117517;1189;24933;-62
2022/10/05 07:05:32;;;;;;;;;11.75;8.75;;;24.86;102314.15;;;;117479;1188;25090;-67
2022/10/05 07:08:11;;;;;;;;;8.00;7.00;;;24.89;102315.64;;;;117448;1186;24894;-65
2022/10/05 07:10:56;;;;;;;;;12.00;9.75;;;24.90;102316.14;;;;117421;1190;25273;-62
2022/10/05 07:13:46;;;;;;;;;10.75;6.50;;;24.96;102314.46;;;;117489;1189;25528;-62
2022/10/05 07:16:55;;;;;;;;;13.00;10.75;;;24.98;102315.20;;;;117477;1188;25369;-63
2022/10/05 07:19:36;;;;;;;;;12.67;8.00;;;25.07;102317.16;;;;117742;1187;25601;-62
2022/10/05 07:22:34;;;;;;;;;10.50;7.50;;;25.13;102320.30;;;;117535;1187;25414;-62
2022/10/05 07:25:09;;;;;;;;;10.33;9.67;;;25.20;102320.93;;;;117532;1188;25005;-67
2022/10/05 07:27:52;;;;;;;;;13.50;10.50;;;25.23;102321.18;;;;117559;1187;24745;-69
2022/10/05 07:30:21;;;;;;;;;7.50;7.50;;;25.24;102319.27;;;;117488;1189;25271;-63
2022/10/05 07:32:58;;;;;;;;;10.00;8.75;;;25.25;102317.73;;;;117489;1190;25680;-70
2022/10/05 07:38:31;;;;;;;;;7.00;7.00;;;25.24;102319.65;;;;117450;1190;25107;-62
2022/10/05 07:41:12;;;;;;;;;9.25;8.50;;;25.25;102319.64;;;;117438;1190;25255;-62
2022/10/05 07:43:52;;;;;;;;;6.00;5.00;;;25.29;102322.95;;;;117425;1189;25673;-64
2022/10/05 07:46:39;;;;;;;;;8.75;8.50;;;25.35;102332.73;;;;117407;1189;25376;-61
2022/10/05 07:49:10;;;;;;;;;9.75;9.75;;;25.37;102333.55;;;;117382;1190;25294;-62
2022/10/05 07:51:40;;;;;;;;;9.75;7.75;;;25.37;102333.55;;;;117426;1189;25175;-62
2022/10/05 07:54:22;;;;;;;;;7.00;4.00;;;25.35;102334.10;;;;117410;1189;25061;-62
2022/10/05 07:57:09;;;;;;;;;7.00;6.25;;;25.39;102335.23;;;;117419;1189;25491;-62
2022/10/05 07:59:47;;;;;;;;;7.00;5.00;;;25.45;102340.11;;;;117449;1188;25045;-61
2022/10/05 08:02:52;;;;;;;;;8.00;5.67;;;25.49;102345.48;;;;117479;1189;25466;-62
2022/10/05 08:05:30;;;;;;;;;6.75;6.00;;;25.53;102345.45;;;;117058;1193;24835;-67
2022/10/05 08:08:20;;;;;;;;;8.00;6.33;;;25.55;102343.19;;;;117407;1190;26226;-62
2022/10/05 08:11:11;;;;;;;;;7.75;6.75;;;25.55;102346.58;;;;117395;1190;24961;-62
2022/10/05 08:13:54;;;;;;;;;6.00;6.00;;;25.54;102344.14;;;;117416;1189;25082;-62
2022/10/05 08:16:27;;;;;;;;;7.00;5.75;;;25.59;102344.33;;;;117410;1189;25329;-62
2022/10/05 08:19:30;;;;;;;;;7.25;6.50;;;25.59;102340.54;;;;117457;1190;25368;-62
2022/10/05 08:22:08;;;;;;;;;7.50;7.50;;;25.62;102349.26;;;;117476;1190;25457;-62
2022/10/05 08:24:37;;;;;;;;;10.25;6.75;;;25.61;102348.41;;;;117409;1190;25578;-68
2022/10/05 08:27:21;;;;;;;;;7.75;6.00;;;25.62;102355.05;;;;117402;1188;25140;-62
2022/10/05 08:29:56;;;;;;;;;8.00;6.00;;;25.61;102357.07;;;;117407;1190;24677;-61
2022/10/05 08:32:50;;;;;;;;;7.00;7.00;;;25.62;102364.16;;;;117477;1189;25273;-61
2022/10/05 08:35:37;;;;;;;;;9.33;5.67;;;25.65;102360.13;;;;117895;1187;25608;-61
2022/10/05 08:38:13;;;;;;;;;6.00;6.00;;;25.64;102364.02;;;;117479;1188;24851;-64
2022/10/05 08:41:01;;;;;;;;;8.00;6.25;;;25.65;102361.86;;;;117469;1188;25081;-60
2022/10/05 08:43:32;;;;;;;;;7.00;5.00;;;25.68;102360.32;;;;117894;1186;24850;-61
2022/10/05 08:46:31;;;;;;;;;4.33;4.33;;;25.70;102364.73;;;;117521;1188;25234;-62
2022/10/05 08:49:17;;;;;;;;;7.50;7.25;;;25.70;102359.48;;;;117523;1188;25659;-62
2022/10/05 08:51:48;;;;;;;;;10.00;6.00;;;25.70;102360.84;;;;117486;1188;24915;-62
2022/10/05 08:54:22;;;;;;;;;8.25;5.00;;;25.69;102362.90;;;;117723;1187;25323;-62
2022/10/05 08:57:03;;;;;;;;;10.00;6.50;;;25.67;102363.25;;;;117528;1188;24968;-62
2022/10/05 09:00:07;;;;;;;;;8.00;7.00;;;25.66;102358.54;;;;117526;1188;25057;-62
2022/10/05 09:02:54;;;;;;;;;5.50;5.25;;;25.69;102354.80;;;;117651;1187;25067;-61
2022/10/05 09:05:51;;;;;;;;;9.75;5.00;;;25.72;102354.27;;;;117526;1188;25245;-62
2022/10/05 09:08:29;;;;;;;;;4.50;4.50;;;25.70;102360.20;;;;117465;1188;25163;-62
2022/10/05 09:11:19;;;;;;;;;5.25;4.25;;;25.68;102358.03;;;;117880;1188;24681;-62
2022/10/05 09:14:25;;;;;;;;;6.50;5.00;;;25.68;102356.27;;;;117507;1188;24714;-62
2022/10/05 09:17:01;;;;;;;;;7.50;3.75;;;25.72;102354.11;;;;117766;1188;25457;-61
2022/10/05 09:19:47;;;;;;;;;6.50;6.50;;;25.74;102350.45;;;;117521;1188;25257;-61
2022/10/05 09:22:53;;;;;;;;;3.50;3.50;;;25.73;102351.38;;;;117822;1188;25082;-63
2022/10/05 09:25:31;;;;;;;;;5.00;5.00;;;25.71;102351.56;;;;117426;1190;24949;-65
2022/10/05 09:28:05;;;;;;;;;5.00;4.00;;;25.67;102351.21;;;;117526;1187;24681;-62
2022/10/05 09:30:37;;;;;;;;;4.50;4.50;;;25.65;102344.99;;;;117479;1188;25427;-61
2022/10/05 09:33:27;;;;;;;;;6.50;4.50;;;25.61;102345.17;;;;117484;1188;25316;-61
2022/10/05 09:36:11;;;;;;;;;5.50;4.50;;;25.62;102344.61;;;;117534;1188;24903;-61
2022/10/05 09:38:42;;;;;;;;;6.50;4.00;;;25.61;102340.30;;;;117789;1187;25371;-62
2022/10/05 09:41:38;;;;;;;;;5.00;5.00;;;25.61;102341.64;;;;117520;1188;24962;-61
2022/10/05 09:44:06;;;;;;;;;3.50;2.25;;;25.61;102338.95;;;;117499;1188;25154;-61
2022/10/05 09:46:53;;;;;;;;;5.00;4.00;;;25.56;102332.77;;;;117535;1188;25023;-62
2022/10/05 09:49:48;;;;;;;;;4.25;4.25;;;25.57;102332.48;;;;117521;1188;25680;-62
2022/10/05 09:52:25;;;;;;;;;4.75;4.25;;;25.58;102328.27;;;;117811;1187;25138;-62
2022/10/05 09:55:51;;;;;;;;;5.00;4.25;;;25.56;102323.88;;;;117491;1188;25944;-61
2022/10/05 09:58:44;;;;;;;;;3.67;3.00;;;25.62;102327.09;;;;117407;1189;25541;-64
2022/10/05 10:01:50;;;;;;;;;4.50;2.25;;;25.60;102327.45;;;;117416;1191;25139;-62
2022/10/05 10:04:43;;;;;;;;;3.00;3.00;;;25.58;102328.09;;;;117873;1188;24886;-62
2022/10/05 10:07:30;;;;;;;;;4.00;3.75;;;25.53;102325.02;;;;117519;1188;24878;-62
2022/10/05 10:10:33;;;;;;;;;4.75;4.75;;;25.49;102324.39;;;;117858;1187;25579;-62
2022/10/05 10:13:44;;;;;;;;;4.75;4.25;;;25.51;102319.13;;;;117469;1188;25587;-61
2022/10/05 10:16:15;;;;;;;;;5.50;4.50;;;25.52;102314.84;;;;117379;1189;25685;-62
2022/10/05 10:19:05;;;;;;;;;6.50;5.00;;;25.52;102309.80;;;;117534;1186;25113;-62
2022/10/05 10:22:09;;;;;;;;;4.25;3.75;;;25.49;102309.19;;;;117503;1188;25439;-61
2022/10/05 10:24:44;;;;;;;;;5.25;4.00;;;25.48;102305.04;;;;117565;1188;25647;-61
2022/10/05 10:27:15;;;;;;;;;5.25;5.00;;;25.47;102304.04;;;;117540;1188;25573;-62
2022/10/05 10:29:54;;;;;;;;;5.75;4.25;;;25.46;102302.11;;;;117813;1186;25344;-65
2022/10/05 10:33:01;;;;;;;;;7.00;5.50;;;25.45;102300.54;;;;117459;1188;25683;-62
2022/10/05 10:35:38;;;;;;;;;4.75;4.75;;;25.50;102298.48;;;;117672;1186;25498;-60
2022/10/05 10:38:28;;;;;;;;;5.33;4.33;;;25.46;102300.11;;;;117536;1188;25557;-62
2022/10/05 10:41:45;;;;;;;;;6.00;4.75;;;25.44;102300.34;;;;117904;1187;25371;-61
2022/10/05 10:44:37;;;;;;;;;7.50;5.75;;;25.48;102300.48;;;;117491;1188;25451;-61
2022/10/05 10:47:32;;;;;;;;;5.25;4.00;;;25.48;102301.31;;;;117880;1187;25432;-61
2022/10/05 10:50:38;;;;;;;;;4.00;4.00;;;25.47;102298.56;;;;117523;1188;25587;-61
2022/10/05 10:53:08;;;;;;;;;6.00;4.50;;;25.49;102304.00;;;;117484;1187;25132;-63
2022/10/05 10:56:10;;;;;;;;;6.75;5.00;;;25.49;102305.91;;;;117858;1187;25563;-61
2022/10/05 10:59:09;;;;;;;;;3.00;3.00;;;25.47;102305.97;;;;117482;1188;25468;-62
2022/10/05 11:02:18;;;;;;;;;3.33;3.00;;;25.44;102304.64;;;;117512;1187;25558;-62
2022/10/05 11:04:57;;;;;;;;;7.00;5.33;;;25.48;102305.73;;;;117530;1188;25532;-62
2022/10/05 11:07:38;;;;;;;;;4.50;3.25;;;25.45;102300.02;;;;117519;1188;24826;-61
2022/10/05 11:10:37;;;;;;;;;5.00;4.00;;;25.42;102299.84;;;;117488;1188;24779;-66
2022/10/05 11:13:41;;;;;;;;;3.00;3.00;;;25.39;102294.71;;;;117500;1188;25053;-61
2022/10/05 11:16:16;;;;;;;;;7.00;3.75;;;25.37;102287.99;;;;117515;1188;25184;-62
2022/10/05 11:19:05;;;;;;;;;4.00;4.00;;;25.34;102284.32;;;;117485;1188;24690;-60
2022/10/05 11:22:22;;;;;;;;;3.50;3.50;;;25.32;102278.92;;;;117494;1188;25102;-61
2022/10/05 11:25:19;;;;;;;;;5.25;2.75;;;25.35;102276.77;;;;117354;1188;25183;-61
2022/10/05 11:28:09;;;;;;;;;3.00;3.00;;;25.38;102276.73;;;;117882;1188;25177;-61
2022/10/05 11:30:46;;;;;;;;;3.00;3.00;;;25.35;102270.85;;;;117864;1188;24971;-62
2022/10/05 11:33:37;;;;;;;;;6.00;3.00;;;25.31;102269.58;;;;117505;1189;24777;-61
2022/10/05 11:36:07;;;;;;;;;4.67;3.00;;;25.28;102264.09;;;;117506;1186;24888;-62
2022/10/05 11:38:55;;;;;;;;;3.50;3.50;;;25.25;102257.92;;;;117876;1187;24894;-61
2022/10/05 11:41:31;;;;;;;;;4.75;4.75;;;25.24;102252.70;;;;117475;1188;25050;-61
2022/10/05 11:44:21;;;;;;;;;4.50;4.50;;;25.21;102250.42;;;;117840;1188;24929;-62
2022/10/05 11:47:14;;;;;;;;;4.00;3.00;;;25.21;102249.90;;;;117522;1188;25127;-61
2022/10/05 11:50:10;;;;;;;;;5.00;4.00;;;25.19;102242.10;;;;117475;1189;25614;-64
2022/10/05 11:52:50;;;;;;;;;2.75;2.75;;;25.18;102248.55;;;;117535;1189;25505;-61
2022/10/05 11:55:31;;;;;;;;;5.25;4.25;;;25.18;102251.35;;;;117529;1188;24779;-62
2022/10/05 11:58:25;;;;;;;;;4.00;4.00;;;25.18;102253.88;;;;117468;1189;25264;-62
2022/10/05 12:01:40;;;;;;;;;3.33;2.67;;;25.18;102246.43;;;;117815;1186;25079;-61
2022/10/05 12:04:24;;;;;;;;;6.00;4.75;;;25.27;102252.62;;;;117348;1189;24954;-61
2022/10/05 12:07:04;;;;;;;;;4.00;4.00;;;25.29;102251.43;;;;117533;1188;25511;-62
2022/10/05 12:10:12;;;;;;;;;3.33;3.33;;;25.24;102244.63;;;;117554;1188;24938;-61
2022/10/05 12:12:41;;;;;;;;;3.67;3.67;;;25.25;102246.70;;;;117800;1186;25347;-61
2022/10/05 12:15:26;;;;;;;;;5.00;5.00;;;25.27;102252.31;;;;117515;1186;25629;-61
2022/10/05 12:18:16;;;;;;;;;4.33;4.33;;;25.26;102251.18;;;;117517;1189;25142;-62
2022/10/05 12:20:45;;;;;;;;;5.50;3.00;;;25.22;102249.23;;;;117530;1188;24951;-62
2022/10/05 12:23:30;;;;;;;;;3.00;3.00;;;25.19;102245.74;;;;117872;1186;25025;-66
2022/10/05 12:26:46;;;;;;;;;2.75;2.75;;;25.17;102250.56;;;;117504;1189;24841;-69
2022/10/05 12:29:35;;;;;;;;;4.25;4.25;;;25.21;102247.12;;;;117444;1191;24779;-61
2022/10/05 12:32:12;;;;;;;;;4.00;4.00;;;25.21;102241.86;;;;117416;1191;25080;-66
2022/10/05 12:34:47;;;;;;;;;3.25;3.00;;;25.19;102236.63;;;;117328;1190;25437;-73
2022/10/05 12:37:31;;;;;;;;;4.50;2.75;;;25.18;102237.71;;;;117443;1190;24752;-69
2022/10/05 12:40:31;;;;;;;;;4.00;4.00;;;25.16;102233.77;;;;117432;1190;25554;-64
2022/10/05 12:43:41;;;;;;;;;3.00;3.00;;;25.23;102235.77;;;;117389;1188;25243;-62
2022/10/05 12:46:19;;;;;;;;;3.00;2.00;;;25.28;102231.22;;;;117342;1190;25477;-62
2022/10/05 12:49:00;;;;;;;;;4.67;4.00;;;25.25;102227.83;;;;117368;1190;25462;-61
2022/10/05 12:51:55;;;;;;;;;4.00;2.00;;;25.23;102225.05;;;;117428;1188;25623;-60
2022/10/05 12:54:45;;;;;;;;;5.00;3.50;;;25.25;102219.50;;;;117383;1190;25789;-63
2022/10/05 12:57:22;;;;;;;;;5.75;3.50;;;25.27;102226.56;;;;117439;1190;25174;-61
2022/10/05 13:00:02;;;;;;;;;5.75;4.00;;;25.21;102221.48;;;;117428;1188;24954;-61
2022/10/05 13:02:34;;;;;;;;;4.00;4.00;;;25.19;102223.17;;;;117475;1189;25393;-61
2022/10/05 13:05:08;;;;;;;;;2.25;1.00;;;25.16;102223.92;;;;117422;1189;25501;-61
2022/10/05 13:07:40;;;;;;;;;3.00;3.00;;;25.12;102223.69;;;;117406;1190;24741;-61
2022/10/05 13:10:21;;;;;;;;;2.75;2.75;;;25.10;102223.70;;;;117409;1190;25020;-66
2022/10/05 13:13:17;;;;;;;;;4.00;3.00;;;25.08;102219.92;;;;117447;1190;24693;-61
2022/10/05 13:15:52;;;;;;;;;2.00;1.50;;;25.08;102223.53;;;;117468;1190;24883;-60
2022/10/05 13:18:48;;;;;;;;;5.00;3.75;;;25.05;102223.73;;;;117464;1190;25607;-62
2022/10/05 13:21:45;;;;;;;;;3.50;3.50;;;25.05;102227.59;;;;117490;1190;25090;-61
2022/10/05 13:24:21;;;;;;;;;3.00;3.00;;;25.06;102229.25;;;;117419;1190;24999;-61
2022/10/05 13:27:12;;;;;;;;;3.00;3.00;;;25.06;102231.52;;;;117459;1189;24698;-61
2022/10/05 13:29:56;;;;;;;;;6.00;4.33;;;25.08;102230.04;;;;117492;1189;25096;-62